Time;durP1;ratioP1;P1;durP2;ratioP2;P2;SDS_P1;SDS_P2;PMS_P1;PMS_P2;Temp;Humidity;BMP_temperature;BMP_pressure;BME280_temperature;BME280_humidity;BME280_pressure;Samples;Min_cycle;Max_cycle;Signal;HPM_P1;HPM_P2
2023/06/23 00:00:00;;;;;;;37.15;21.98;;;;;;;;;;6137824;28;20495;-58
2023/06/23 00:03:01;;;;;;;28.88;19.25;;;;;;;;;;6135154;28;20046;-59
2023/06/23 00:06:03;;;;;;;32.77;20.77;;;;;;;;;;6137401;28;20134;-59
2023/06/23 00:09:13;;;;;;;31.35;19.42;;;;;;;;;;6141562;28;20074;-60
2023/06/23 00:12:14;;;;;;;32.60;19.40;;;;;;;;;;6137083;28;20459;-60
2023/06/23 00:15:15;;;;;;;29.97;20.00;;;;;;;;;;6137911;28;20051;-59
2023/06/23 00:18:16;;;;;;;31.25;19.67;;;;;;;;;;6133815;28;20043;-59
2023/06/23 00:21:16;;;;;;;32.03;20.87;;;;;;;;;;6138756;28;20106;-59
2023/06/23 00:24:17;;;;;;;31.27;20.33;;;;;;;;;;6133485;28;20090;-60
2023/06/23 00:27:17;;;;;;;32.57;20.03;;;;;;;;;;6139158;28;20055;-59
2023/06/23 00:30:18;;;;;;;31.10;20.10;;;;;;;;;;6138308;28;20507;-60
2023/06/23 00:33:19;;;;;;;34.20;20.17;;;;;;;;;;6134555;28;20039;-60
2023/06/23 00:36:20;;;;;;;32.40;21.00;;;;;;;;;;6138129;28;20076;-58
2023/06/23 00:39:22;;;;;;;32.67;21.07;;;;;;;;;;6138992;28;20055;-59
2023/06/23 00:42:23;;;;;;;33.97;20.83;;;;;;;;;;6136930;28;20055;-59
2023/06/23 00:45:24;;;;;;;33.42;21.77;;;;;;;;;;6136037;28;20048;-59
2023/06/23 00:48:24;;;;;;;33.13;21.08;;;;;;;;;;6136863;28;20083;-59
2023/06/23 00:51:26;;;;;;;37.83;21.63;;;;;;;;;;6136761;28;20048;-58
2023/06/23 00:54:28;;;;;;;31.38;21.17;;;;;;;;;;6138449;28;20297;-61
2023/06/23 00:57:28;;;;;;;33.50;20.35;;;;;;;;;;6145281;28;20057;-60
2023/06/23 01:00:29;;;;;;;35.03;20.05;;;;;;;;;;6142038;28;20055;-59
2023/06/23 01:03:31;;;;;;;33.50;21.00;;;;;;;;;;6142218;28;20715;-61
2023/06/23 01:06:39;;;;;;;29.48;20.00;;;;;;;;;;6141137;28;20546;-59
2023/06/23 01:09:49;;;;;;;33.28;21.48;;;;;;;;;;6140530;28;20075;-59
2023/06/23 01:13:08;;;;;;;34.70;21.17;;;;;;;;;;6140354;28;20273;-59
2023/06/23 01:16:16;;;;;;;35.38;20.63;;;;;;;;;;6140064;28;20058;-57
2023/06/23 01:19:54;;;;;;;33.83;21.15;;;;;;;;;;6140851;28;20094;-59
2023/06/23 01:23:19;;;;;;;34.08;20.10;;;;;;;;;;6140948;28;20223;-59
2023/06/23 01:26:42;;;;;;;33.63;20.88;;;;;;;;;;6138787;28;21058;-59
2023/06/23 01:29:44;;;;;;;32.03;20.88;;;;;;;;;;6139122;28;20050;-60
2023/06/23 01:32:56;;;;;;;31.17;20.73;;;;;;;;;;6139304;28;20051;-60
2023/06/23 01:36:03;;;;;;;39.13;20.70;;;;;;;;;;6139217;28;20047;-60
2023/06/23 01:39:07;;;;;;;35.65;22.63;;;;;;;;;;6141108;28;20053;-59
2023/06/23 01:42:13;;;;;;;40.78;23.52;;;;;;;;;;6139275;28;20106;-60
2023/06/23 01:45:14;;;;;;;38.00;21.65;;;;;;;;;;6139242;28;20596;-59
2023/06/23 01:48:15;;;;;;;;;;;;;;;;;;6139257;28;20047;-60
2023/06/23 01:51:18;;;;;;;33.35;21.85;;;;;;;;;;6140596;28;20020;-59
2023/06/23 01:54:20;;;;;;;34.15;20.63;;;;;;;;;;6140284;28;20142;-59
2023/06/23 01:57:22;;;;;;;33.42;21.33;;;;;;;;;;6140018;28;20571;-59
2023/06/23 02:00:22;;;;;;;33.55;21.80;;;;;;;;;;6139024;28;20043;-59
2023/06/23 02:03:26;;;;;;;33.53;20.53;;;;;;;;;;6138818;28;20054;-60
2023/06/23 02:06:28;;;;;;;33.88;21.23;;;;;;;;;;6136254;28;20788;-60
2023/06/23 02:09:30;;;;;;;35.67;21.23;;;;;;;;;;6139539;28;20554;-60
2023/06/23 02:12:33;;;;;;;33.15;20.88;;;;;;;;;;6139508;28;20043;-59
2023/06/23 02:15:37;;;;;;;35.70;21.63;;;;;;;;;;6139604;28;20048;-58
2023/06/23 02:18:39;;;;;;;35.28;21.60;;;;;;;;;;6144817;28;20059;-58
2023/06/23 02:21:43;;;;;;;31.90;20.38;;;;;;;;;;6146726;28;20143;-58
2023/06/23 02:24:46;;;;;;;34.30;20.63;;;;;;;;;;6139913;28;21177;-59
2023/06/23 02:27:47;;;;;;;31.42;20.08;;;;;;;;;;6139017;28;20047;-59
2023/06/23 02:30:49;;;;;;;32.22;19.90;;;;;;;;;;6136593;28;20055;-59
2023/06/23 02:33:51;;;;;;;33.80;21.05;;;;;;;;;;6137276;28;20047;-59
2023/06/23 02:36:58;;;;;;;32.00;20.08;;;;;;;;;;6138099;28;20058;-59
2023/06/23 02:40:10;;;;;;;35.70;21.40;;;;;;;;;;6142133;28;20051;-59
2023/06/23 02:43:28;;;;;;;34.10;20.95;;;;;;;;;;6138258;28;20051;-58
2023/06/23 02:46:33;;;;;;;45.30;26.25;;;;;;;;;;6138445;28;20050;-60
2023/06/23 02:49:37;;;;;;;42.45;25.70;;;;;;;;;;6137793;28;20447;-59
2023/06/23 02:52:42;;;;;;;43.08;24.08;;;;;;;;;;6137066;28;20047;-60
2023/06/23 02:55:45;;;;;;;42.67;25.67;;;;;;;;;;6138456;28;20057;-60
2023/06/23 02:58:49;;;;;;;40.60;24.80;;;;;;;;;;6143728;28;20067;-59
2023/06/23 03:01:52;;;;;;;36.55;23.25;;;;;;;;;;6136131;28;20606;-59
2023/06/23 03:04:56;;;;;;;39.20;24.38;;;;;;;;;;6137343;28;21083;-60
2023/06/23 03:07:56;;;;;;;37.72;23.40;;;;;;;;;;6139494;28;20082;-60
2023/06/23 03:10:57;;;;;;;39.30;23.80;;;;;;;;;;6138816;28;20039;-60
2023/06/23 03:13:58;;;;;;;37.77;23.37;;;;;;;;;;6138964;28;20419;-58
2023/06/23 03:17:04;;;;;;;37.85;22.35;;;;;;;;;;6136254;28;20059;-60
2023/06/23 03:20:37;;;;;;;36.83;21.52;;;;;;;;;;6138801;28;20055;-60
2023/06/23 03:23:39;;;;;;;35.20;22.38;;;;;;;;;;6140376;28;20059;-60
2023/06/23 03:26:45;;;;;;;37.83;23.15;;;;;;;;;;6138944;28;20565;-60
2023/06/23 03:29:59;;;;;;;38.45;23.27;;;;;;;;;;6137484;28;20586;-60
2023/06/23 03:33:07;;;;;;;36.08;22.65;;;;;;;;;;6138605;28;20058;-60
2023/06/23 03:36:13;;;;;;;38.17;23.75;;;;;;;;;;6136824;28;20053;-61
2023/06/23 03:39:18;;;;;;;37.28;24.08;;;;;;;;;;6136644;28;20058;-60
2023/06/23 03:42:19;;;;;;;36.05;22.60;;;;;;;;;;6136430;28;20611;-60
2023/06/23 03:45:23;;;;;;;36.25;23.35;;;;;;;;;;6139148;28;20043;-60
2023/06/23 03:48:27;;;;;;;42.85;24.63;;;;;;;;;;6135811;28;20108;-60
2023/06/23 03:51:31;;;;;;;48.80;32.05;;;;;;;;;;6137818;28;20040;-60
2023/06/23 03:54:33;;;;;;;45.75;28.92;;;;;;;;;;6137467;28;20083;-59
2023/06/23 03:57:35;;;;;;;41.33;24.42;;;;;;;;;;6135258;28;20468;-59
2023/06/23 04:00:39;;;;;;;33.00;20.35;;;;;;;;;;6134178;28;20059;-60
2023/06/23 04:03:41;;;;;;;32.97;20.40;;;;;;;;;;6138411;28;20537;-60
2023/06/23 04:06:45;;;;;;;32.08;19.40;;;;;;;;;;6138450;28;20485;-60
2023/06/23 04:09:49;;;;;;;32.80;19.83;;;;;;;;;;6136894;28;20046;-60
2023/06/23 04:12:51;;;;;;;34.63;20.05;;;;;;;;;;6136053;28;20494;-60
2023/06/23 04:15:52;;;;;;;;;;;;;;;;;;6144192;28;20133;-59
2023/06/23 04:18:55;;;;;;;32.15;19.65;;;;;;;;;;6137355;28;20387;-59
2023/06/23 04:21:56;;;;;;;36.75;20.85;;;;;;;;;;6137932;28;20090;-60
2023/06/23 04:24:58;;;;;;;34.92;19.98;;;;;;;;;;6134930;28;20055;-59
2023/06/23 04:28:03;;;;;;;33.45;19.52;;;;;;;;;;6138803;28;20043;-60
2023/06/23 04:31:07;;;;;;;30.60;18.65;;;;;;;;;;6137091;28;20447;-59
2023/06/23 04:34:07;;;;;;;33.53;20.35;;;;;;;;;;6142179;28;20070;-61
2023/06/23 04:37:15;;;;;;;34.07;19.87;;;;;;;;;;6145231;28;20055;-57
2023/06/23 04:40:41;;;;;;;32.33;20.08;;;;;;;;;;6146812;28;20051;-57
2023/06/23 04:43:46;;;;;;;37.25;20.73;;;;;;;;;;6137869;28;20055;-57
2023/06/23 04:46:49;;;;;;;31.45;20.42;;;;;;;;;;6140922;28;20051;-59
2023/06/23 04:49:58;;;;;;;31.17;20.83;;;;;;;;;;6141333;28;20058;-57
2023/06/23 04:53:06;;;;;;;35.38;21.35;;;;;;;;;;6138443;28;20475;-58
2023/06/23 04:56:08;;;;;;;32.33;20.05;;;;;;;;;;6138430;28;20070;-58
2023/06/23 04:59:10;;;;;;;38.63;21.73;;;;;;;;;;6139160;28;20489;-59
2023/06/23 05:02:12;;;;;;;36.05;21.63;;;;;;;;;;6140927;28;20478;-59
2023/06/23 05:05:18;;;;;;;36.28;22.08;;;;;;;;;;6136591;28;20039;-60
2023/06/23 05:08:20;;;;;;;33.80;22.10;;;;;;;;;;6141709;28;20118;-57
2023/06/23 05:11:22;;;;;;;36.83;21.75;;;;;;;;;;6141313;28;20051;-60
2023/06/23 05:14:25;;;;;;;38.55;21.38;;;;;;;;;;6138385;28;20182;-57
2023/06/23 05:17:27;;;;;;;34.53;21.80;;;;;;;;;;6133521;28;20301;-60
2023/06/23 05:20:30;;;;;;;34.40;21.15;;;;;;;;;;6135532;28;20063;-60
2023/06/23 05:23:35;;;;;;;29.23;15.75;;;;;;;;;;6139130;28;20560;-59
2023/06/23 05:26:38;;;;;;;30.35;13.80;;;;;;;;;;6130964;28;20150;-60
2023/06/23 05:29:43;;;;;;;34.35;8.15;;;;;;;;;;6134824;28;20064;-61
2023/06/23 05:32:47;;;;;;;27.52;7.85;;;;;;;;;;6137096;28;20139;-58
2023/06/23 05:35:51;;;;;;;32.65;8.32;;;;;;;;;;6136763;28;20051;-61
2023/06/23 05:38:54;;;;;;;21.65;7.30;;;;;;;;;;6139117;28;20051;-59
2023/06/23 05:41:55;;;;;;;25.00;7.45;;;;;;;;;;6137212;28;20043;-61
2023/06/23 05:44:55;;;;;;;26.97;8.07;;;;;;;;;;6139565;28;20039;-60
2023/06/23 05:48:04;;;;;;;25.83;7.80;;;;;;;;;;6139211;28;20401;-59
2023/06/23 05:51:10;;;;;;;24.23;7.95;;;;;;;;;;6135000;28;20170;-59
2023/06/23 05:54:11;;;;;;;21.80;6.93;;;;;;;;;;6131677;28;20395;-60
2023/06/23 05:57:30;;;;;;;20.55;6.88;;;;;;;;;;6135504;28;20126;-60
2023/06/23 06:00:38;;;;;;;23.65;7.13;;;;;;;;;;6135970;28;20047;-60
2023/06/23 06:03:44;;;;;;;18.50;7.03;;;;;;;;;;6140254;28;20055;-60
2023/06/23 06:06:46;;;;;;;23.30;7.60;;;;;;;;;;6137687;28;20398;-60
2023/06/23 06:09:49;;;;;;;30.98;7.90;;;;;;;;;;6132417;28;20058;-60
2023/06/23 06:12:51;;;;;;;19.50;6.70;;;;;;;;;;6138847;28;20078;-61
2023/06/23 06:15:53;;;;;;;21.98;7.03;;;;;;;;;;6138445;28;20043;-61
2023/06/23 06:18:55;;;;;;;21.73;7.72;;;;;;;;;;6136343;28;20174;-61
2023/06/23 06:21:58;;;;;;;21.20;7.47;;;;;;;;;;6133895;28;20049;-61
2023/06/23 06:25:00;;;;;;;19.05;7.47;;;;;;;;;;6136878;28;20384;-60
2023/06/23 06:28:04;;;;;;;22.48;8.25;;;;;;;;;;6138184;28;20055;-59
2023/06/23 06:31:07;;;;;;;24.05;9.05;;;;;;;;;;6136401;28;20047;-61
2023/06/23 06:34:09;;;;;;;28.27;9.35;;;;;;;;;;6136869;28;20511;-59
2023/06/23 06:37:10;;;;;;;24.00;8.55;;;;;;;;;;6141115;28;20157;-60
2023/06/23 06:40:12;;;;;;;28.70;9.05;;;;;;;;;;6137744;28;20104;-61
2023/06/23 06:43:12;;;;;;;24.42;8.25;;;;;;;;;;6138266;28;20070;-60
2023/06/23 06:46:14;;;;;;;24.27;9.33;;;;;;;;;;6137204;28;20055;-61
2023/06/23 06:49:15;;;;;;;;;;;;;;;;;;6135739;28;20086;-59
2023/06/23 06:52:17;;;;;;;21.95;10.65;;;;;;;;;;6135858;28;20024;-60
2023/06/23 06:55:20;;;;;;;24.35;11.23;;;;;;;;;;6136548;28;20039;-60
2023/06/23 06:58:21;;;;;;;29.15;11.02;;;;;;;;;;6136669;28;20529;-61
2023/06/23 07:01:22;;;;;;;28.23;12.40;;;;;;;;;;6135141;28;20055;-62
2023/06/23 07:04:24;;;;;;;25.52;12.45;;;;;;;;;;6138137;28;20124;-60
2023/06/23 07:07:25;;;;;;;28.75;12.98;;;;;;;;;;6135771;28;20058;-61
2023/06/23 07:10:25;;;;;;;31.53;14.27;;;;;;;;;;6136717;28;20137;-59
2023/06/23 07:13:26;;;;;;;33.07;13.57;;;;;;;;;;6139082;28;20046;-61
2023/06/23 07:16:32;;;;;;;31.40;16.63;;;;;;;;;;6138004;28;20059;-60
2023/06/23 07:19:32;;;;;;;32.80;16.02;;;;;;;;;;6136362;28;20048;-61
2023/06/23 07:22:33;;;;;;;30.73;16.13;;;;;;;;;;6136197;28;20129;-61
2023/06/23 07:25:33;;;;;;;32.07;15.73;;;;;;;;;;6140831;28;20046;-60
2023/06/23 07:28:34;;;;;;;33.10;16.33;;;;;;;;;;6138729;28;20055;-60
2023/06/23 07:31:37;;;;;;;28.97;16.40;;;;;;;;;;6136476;28;20450;-60
2023/06/23 07:34:38;;;;;;;33.45;16.23;;;;;;;;;;6137131;28;20118;-59
2023/06/23 07:37:38;;;;;;;33.67;16.00;;;;;;;;;;6138659;28;20498;-61
2023/06/23 07:40:39;;;;;;;38.63;16.48;;;;;;;;;;6135671;28;20051;-61
2023/06/23 07:43:43;;;;;;;35.67;16.37;;;;;;;;;;6138063;28;20390;-60
2023/06/23 07:46:44;;;;;;;31.65;14.75;;;;;;;;;;6137623;28;20050;-60
2023/06/23 07:49:44;;;;;;;32.33;16.13;;;;;;;;;;6139841;28;20053;-61
2023/06/23 07:52:53;;;;;;;36.77;16.30;;;;;;;;;;6141459;28;20118;-60
2023/06/23 07:55:53;;;;;;;35.97;15.20;;;;;;;;;;6141886;28;20053;-60
2023/06/23 07:58:54;;;;;;;35.20;16.33;;;;;;;;;;6141285;28;20149;-61
2023/06/23 08:01:54;;;;;;;33.53;15.77;;;;;;;;;;6141451;28;20043;-60
2023/06/23 08:04:55;;;;;;;36.07;15.67;;;;;;;;;;6140601;28;20135;-61
2023/06/23 08:07:55;;;;;;;35.53;16.77;;;;;;;;;;6142292;28;20066;-60
2023/06/23 08:10:56;;;;;;;28.97;15.70;;;;;;;;;;6141249;28;20495;-60
2023/06/23 08:13:57;;;;;;;29.33;16.10;;;;;;;;;;6137475;28;20051;-59
2023/06/23 08:16:57;;;;;;;32.70;15.90;;;;;;;;;;6137322;28;20067;-61
2023/06/23 08:19:58;;;;;;;32.33;16.83;;;;;;;;;;6136077;28;20503;-61
2023/06/23 08:22:59;;;;;;;36.80;16.60;;;;;;;;;;6136372;28;20043;-61
2023/06/23 08:25:59;;;;;;;35.23;18.60;;;;;;;;;;6137323;28;20458;-58
2023/06/23 08:29:00;;;;;;;33.23;18.27;;;;;;;;;;6133855;28;20059;-61
2023/06/23 08:32:00;;;;;;;34.77;18.67;;;;;;;;;;6133014;28;20047;-60
2023/06/23 08:35:02;;;;;;;36.70;20.43;;;;;;;;;;6135775;28;20073;-61
2023/06/23 08:38:04;;;;;;;30.25;18.67;;;;;;;;;;6140825;28;20514;-61
2023/06/23 08:41:06;;;;;;;34.40;18.70;;;;;;;;;;6132346;28;20055;-61
2023/06/23 08:44:13;;;;;;;34.80;18.27;;;;;;;;;;6135955;28;20122;-61
2023/06/23 08:47:16;;;;;;;31.92;17.92;;;;;;;;;;6143041;28;20467;-62
2023/06/23 08:50:17;;;;;;;35.28;19.30;;;;;;;;;;6136655;28;20058;-61
2023/06/23 08:53:20;;;;;;;37.53;19.67;;;;;;;;;;6136049;28;20178;-61
2023/06/23 08:56:20;;;;;;;46.75;20.48;;;;;;;;;;6134745;28;20147;-61
2023/06/23 08:59:21;;;;;;;35.13;21.70;;;;;;;;;;6136197;28;20516;-61
2023/06/23 09:02:22;;;;;;;40.23;20.77;;;;;;;;;;6136235;28;20132;-61
2023/06/23 09:05:23;;;;;;;41.00;22.37;;;;;;;;;;6134255;28;20459;-61
2023/06/23 09:08:23;;;;;;;44.27;23.30;;;;;;;;;;6136352;28;20342;-61
2023/06/23 09:11:25;;;;;;;38.33;22.73;;;;;;;;;;6135715;28;20047;-61
2023/06/23 09:14:30;;;;;;;30.73;21.48;;;;;;;;;;6135747;28;20051;-60
2023/06/23 09:17:32;;;;;;;38.97;22.70;;;;;;;;;;6142427;28;20043;-61
2023/06/23 09:20:32;;;;;;;;;;;;;;;;;;6143592;28;20502;-61
2023/06/23 09:23:33;;;;;;;36.73;23.87;;;;;;;;;;6143352;28;19932;-61
2023/06/23 09:26:51;;;;;;;39.53;23.23;;;;;;;;;;6132477;28;20059;-60
2023/06/23 09:30:10;;;;;;;43.17;24.27;;;;;;;;;;6131898;28;20055;-60
2023/06/23 09:33:10;;;;;;;46.25;24.48;;;;;;;;;;6129284;28;20134;-59
2023/06/23 09:36:11;;;;;;;44.90;26.00;;;;;;;;;;6128812;28;20099;-60
2023/06/23 09:39:15;;;;;;;44.47;26.47;;;;;;;;;;6133252;28;20391;-60
2023/06/23 09:42:16;;;;;;;46.22;26.98;;;;;;;;;;6131329;28;20055;-62
2023/06/23 09:45:17;;;;;;;47.47;27.93;;;;;;;;;;6130164;28;20054;-60
2023/06/23 09:48:19;;;;;;;47.92;27.83;;;;;;;;;;6130624;28;20061;-58
2023/06/23 09:51:19;;;;;;;46.55;27.80;;;;;;;;;;6132974;28;20107;-63
2023/06/23 09:54:39;;;;;;;46.20;28.15;;;;;;;;;;6130754;28;20073;-62
2023/06/23 09:57:39;;;;;;;50.38;28.80;;;;;;;;;;6131881;28;20047;-60
2023/06/23 10:00:40;;;;;;;48.10;29.63;;;;;;;;;;6132197;28;20459;-61
2023/06/23 10:03:46;;;;;;;45.23;27.73;;;;;;;;;;6128933;28;20309;-60
2023/06/23 10:06:47;;;;;;;45.47;28.38;;;;;;;;;;6127446;28;20051;-60
2023/06/23 10:09:49;;;;;;;44.57;27.60;;;;;;;;;;6132342;28;20058;-61
2023/06/23 10:12:50;;;;;;;41.22;27.70;;;;;;;;;;6131081;28;20455;-61
2023/06/23 10:15:51;;;;;;;41.13;26.97;;;;;;;;;;6128627;28;20047;-59
2023/06/23 10:18:52;;;;;;;41.45;27.30;;;;;;;;;;6131304;28;20047;-62
2023/06/23 10:21:53;;;;;;;40.33;25.03;;;;;;;;;;6131442;28;20058;-59
2023/06/23 10:24:56;;;;;;;41.08;25.40;;;;;;;;;;6128794;28;20550;-62
2023/06/23 10:27:58;;;;;;;42.13;25.95;;;;;;;;;;6130262;28;20051;-61
2023/06/23 10:31:02;;;;;;;42.55;23.75;;;;;;;;;;6130457;28;20665;-62
2023/06/23 10:34:05;;;;;;;39.80;24.45;;;;;;;;;;6130964;28;20130;-62
2023/06/23 10:37:09;;;;;;;38.05;23.95;;;;;;;;;;6127822;28;20070;-62
2023/06/23 10:40:11;;;;;;;35.03;23.67;;;;;;;;;;6131501;28;20628;-63
2023/06/23 10:43:12;;;;;;;38.15;24.13;;;;;;;;;;6130532;28;20708;-61
2023/06/23 10:46:13;;;;;;;38.95;23.88;;;;;;;;;;6128325;28;20138;-58
2023/06/23 10:49:15;;;;;;;39.10;22.25;;;;;;;;;;6130821;28;20146;-61
2023/06/23 10:52:16;;;;;;;34.03;19.50;;;;;;;;;;6129033;28;20073;-59
2023/06/23 10:55:40;;;;;;;30.90;20.58;;;;;;;;;;6126123;28;20061;-61
2023/06/23 10:58:49;;;;;;;25.23;14.18;;;;;;;;;;6128887;28;20059;-60
2023/06/23 11:01:59;;;;;;;27.85;15.27;;;;;;;;;;6130436;28;20118;-59
2023/06/23 11:05:04;;;;;;;22.33;12.93;;;;;;;;;;6129878;28;20047;-60
2023/06/23 11:08:09;;;;;;;23.40;14.05;;;;;;;;;;6126265;28;20125;-60
2023/06/23 11:11:11;;;;;;;22.27;13.85;;;;;;;;;;6131610;28;20495;-61
2023/06/23 11:14:15;;;;;;;23.10;13.80;;;;;;;;;;6130475;28;20047;-62
2023/06/23 11:17:20;;;;;;;24.48;14.88;;;;;;;;;;6126560;28;20058;-61
2023/06/23 11:20:24;;;;;;;23.67;13.82;;;;;;;;;;6128804;28;20066;-61
2023/06/23 11:23:24;;;;;;;27.70;14.40;;;;;;;;;;6128741;28;20388;-60
2023/06/23 11:26:26;;;;;;;26.90;14.82;;;;;;;;;;6127546;28;20065;-61
2023/06/23 11:29:27;;;;;;;25.90;13.98;;;;;;;;;;6128279;28;20075;-61
2023/06/23 11:32:28;;;;;;;24.13;13.27;;;;;;;;;;6130099;28;20588;-62
2023/06/23 11:35:29;;;;;;;25.10;13.93;;;;;;;;;;6128250;28;20055;-62
2023/06/23 11:38:31;;;;;;;19.58;11.95;;;;;;;;;;6126651;28;20055;-62
2023/06/23 11:41:32;;;;;;;21.23;12.23;;;;;;;;;;6129967;28;20043;-61
2023/06/23 11:44:33;;;;;;;24.35;11.95;;;;;;;;;;6130099;28;20058;-63
2023/06/23 11:47:33;;;;;;;21.67;11.23;;;;;;;;;;6124682;28;20550;-63
2023/06/23 11:50:34;;;;;;;21.30;9.75;;;;;;;;;;6126723;28;20094;-62
2023/06/23 11:53:36;;;;;;;15.10;9.43;;;;;;;;;;6127889;28;20451;-62
2023/06/23 11:56:40;;;;;;;22.02;9.80;;;;;;;;;;6127148;28;20059;-63
2023/06/23 11:59:41;;;;;;;20.42;8.95;;;;;;;;;;6128062;28;20087;-62
2023/06/23 12:02:44;;;;;;;20.20;10.38;;;;;;;;;;6128867;28;20085;-60
2023/06/23 12:05:46;;;;;;;17.15;9.35;;;;;;;;;;6128104;28;20134;-63
2023/06/23 12:08:49;;;;;;;17.48;9.90;;;;;;;;;;6126122;28;20062;-63
2023/06/23 12:11:51;;;;;;;21.13;10.40;;;;;;;;;;6127456;28;20109;-62
2023/06/23 12:14:58;;;;;;;14.95;9.52;;;;;;;;;;6129581;28;20043;-63
2023/06/23 12:17:59;;;;;;;20.23;9.13;;;;;;;;;;6127782;28;20051;-61
2023/06/23 12:21:00;;;;;;;17.50;9.48;;;;;;;;;;6127431;28;20062;-61
2023/06/23 12:24:01;;;;;;;18.42;9.35;;;;;;;;;;6128608;28;20043;-61
2023/06/23 12:27:04;;;;;;;18.35;8.30;;;;;;;;;;6127427;28;20054;-63
2023/06/23 12:30:18;;;;;;;19.45;8.50;;;;;;;;;;6125963;28;20397;-62
2023/06/23 12:33:18;;;;;;;17.52;8.95;;;;;;;;;;6128163;28;20054;-62
2023/06/23 12:36:19;;;;;;;16.10;9.83;;;;;;;;;;6128029;28;20043;-62
2023/06/23 12:39:21;;;;;;;20.55;10.68;;;;;;;;;;6128669;28;20047;-63
2023/06/23 12:42:22;;;;;;;20.50;10.80;;;;;;;;;;6128289;28;20047;-63
2023/06/23 12:45:24;;;;;;;17.38;10.68;;;;;;;;;;6125428;28;20053;-62
2023/06/23 12:48:24;;;;;;;18.13;9.93;;;;;;;;;;6126363;28;20221;-60
2023/06/23 12:51:36;;;;;;;19.13;10.70;;;;;;;;;;6132912;28;20145;-62
2023/06/23 12:54:36;;;;;;;24.15;11.35;;;;;;;;;;6134543;28;20091;-62
2023/06/23 12:57:37;;;;;;;20.08;11.27;;;;;;;;;;6132544;28;20082;-63
2023/06/23 13:00:37;;;;;;;20.20;11.40;;;;;;;;;;6129913;28;20134;-63
2023/06/23 13:03:38;;;;;;;17.77;10.50;;;;;;;;;;6132360;28;20054;-63
2023/06/23 13:06:39;;;;;;;21.80;10.30;;;;;;;;;;6132666;28;20059;-63
2023/06/23 13:09:39;;;;;;;24.02;10.77;;;;;;;;;;6131698;28;20051;-60
2023/06/23 13:12:40;;;;;;;22.30;10.77;;;;;;;;;;6133188;28;20059;-63
2023/06/23 13:15:42;;;;;;;18.55;9.05;;;;;;;;;;6131131;28;20412;-63
2023/06/23 13:18:42;;;;;;;18.15;10.00;;;;;;;;;;6135809;28;20194;-62
2023/06/23 13:21:45;;;;;;;18.75;9.73;;;;;;;;;;6131640;28;20051;-63
2023/06/23 13:24:46;;;;;;;18.23;9.25;;;;;;;;;;6132659;28;20463;-63
2023/06/23 13:27:47;;;;;;;19.75;9.55;;;;;;;;;;6133106;28;20425;-63
2023/06/23 13:30:47;;;;;;;18.00;9.60;;;;;;;;;;6130048;28;20051;-63
2023/06/23 13:33:48;;;;;;;16.00;9.38;;;;;;;;;;6129801;28;20161;-62
2023/06/23 13:36:49;;;;;;;19.47;9.40;;;;;;;;;;6130714;28;20415;-62
2023/06/23 13:39:50;;;;;;;17.85;9.63;;;;;;;;;;6132968;28;20106;-63
2023/06/23 13:42:50;;;;;;;19.67;9.68;;;;;;;;;;6129558;28;20039;-62
2023/06/23 13:45:51;;;;;;;19.27;9.43;;;;;;;;;;6131464;28;20074;-59
2023/06/23 13:48:51;;;;;;;25.40;9.20;;;;;;;;;;6130913;28;20523;-62
2023/06/23 13:51:52;;;;;;;17.02;9.30;;;;;;;;;;6129898;28;20141;-63
2023/06/23 13:54:52;;;;;;;21.57;9.73;;;;;;;;;;6131835;28;20051;-60
2023/06/23 13:57:53;;;;;;;15.93;9.35;;;;;;;;;;6129382;28;20163;-63
2023/06/23 14:00:54;;;;;;;17.33;10.13;;;;;;;;;;6130719;28;20043;-63
2023/06/23 14:03:55;;;;;;;20.80;10.55;;;;;;;;;;6131427;28;20105;-59
2023/06/23 14:06:55;;;;;;;18.13;10.27;;;;;;;;;;6129825;28;20043;-63
2023/06/23 14:09:56;;;;;;;20.60;9.70;;;;;;;;;;6130922;28;20047;-62
2023/06/23 14:12:57;;;;;;;19.13;10.00;;;;;;;;;;6130141;28;20040;-62
2023/06/23 14:15:57;;;;;;;19.35;9.77;;;;;;;;;;6131231;28;20051;-63
2023/06/23 14:18:59;;;;;;;18.73;9.40;;;;;;;;;;6132906;28;20526;-63
2023/06/23 14:21:59;;;;;;;;;;;;;;;;;;6132339;28;20047;-62
2023/06/23 14:25:00;;;;;;;20.27;9.33;;;;;;;;;;6133551;28;20890;-59
2023/06/23 14:28:00;;;;;;;16.63;8.68;;;;;;;;;;6129815;28;20782;-63
2023/06/23 14:31:02;;;;;;;15.47;8.80;;;;;;;;;;6130600;28;20924;-63
2023/06/23 14:34:03;;;;;;;19.27;9.45;;;;;;;;;;6129495;28;20039;-60
2023/06/23 14:37:04;;;;;;;22.47;9.63;;;;;;;;;;6130400;28;20059;-63
2023/06/23 14:40:06;;;;;;;21.20;9.27;;;;;;;;;;6129364;28;20055;-63
2023/06/23 14:43:07;;;;;;;14.52;8.73;;;;;;;;;;6132904;28;20039;-64
2023/06/23 14:46:07;;;;;;;19.05;9.00;;;;;;;;;;6134076;28;20061;-63
2023/06/23 14:49:08;;;;;;;19.83;9.07;;;;;;;;;;6135655;28;20449;-62
2023/06/23 14:52:09;;;;;;;20.73;9.50;;;;;;;;;;6128742;28;20071;-64
2023/06/23 14:55:09;;;;;;;15.00;8.50;;;;;;;;;;6127333;28;20145;-61
2023/06/23 14:58:10;;;;;;;18.70;9.88;;;;;;;;;;6125393;28;20315;-64
2023/06/23 15:01:10;;;;;;;17.63;9.10;;;;;;;;;;6125695;28;20450;-64
2023/06/23 15:04:11;;;;;;;18.23;9.55;;;;;;;;;;6128100;28;20414;-61
2023/06/23 15:07:12;;;;;;;19.87;9.67;;;;;;;;;;6125526;28;20055;-63
2023/06/23 15:10:12;;;;;;;17.83;10.98;;;;;;;;;;6129703;28;20074;-63
2023/06/23 15:13:13;;;;;;;18.40;10.43;;;;;;;;;;6129597;28;20054;-63
2023/06/23 15:16:14;;;;;;;18.38;11.43;;;;;;;;;;6127694;28;20367;-64
2023/06/23 15:19:14;;;;;;;26.40;12.40;;;;;;;;;;6131619;28;20122;-61
2023/06/23 15:22:15;;;;;;;20.63;11.73;;;;;;;;;;6126056;28;20042;-63
2023/06/23 15:25:16;;;;;;;24.23;12.03;;;;;;;;;;6127472;28;20517;-63
2023/06/23 15:28:30;;;;;;;20.13;11.73;;;;;;;;;;6127592;28;20057;-63
2023/06/23 15:31:30;;;;;;;19.45;12.10;;;;;;;;;;6129447;28;20059;-63
2023/06/23 15:34:31;;;;;;;21.67;11.85;;;;;;;;;;6125997;28;20079;-63
2023/06/23 15:37:31;;;;;;;33.33;13.03;;;;;;;;;;6127101;28;20472;-64
2023/06/23 15:40:32;;;;;;;26.48;12.77;;;;;;;;;;6128128;28;20051;-61
2023/06/23 15:43:33;;;;;;;20.70;12.57;;;;;;;;;;6129470;28;20043;-63
2023/06/23 15:46:34;;;;;;;22.25;12.40;;;;;;;;;;6125634;28;20121;-61
2023/06/23 15:49:35;;;;;;;23.83;11.53;;;;;;;;;;6129135;28;20097;-63
2023/06/23 15:52:37;;;;;;;23.92;11.75;;;;;;;;;;6127478;28;20658;-63
2023/06/23 15:55:38;;;;;;;20.10;11.20;;;;;;;;;;6126856;28;20070;-63
2023/06/23 15:58:38;;;;;;;20.55;11.10;;;;;;;;;;6129107;28;20597;-61
2023/06/23 16:01:39;;;;;;;23.23;12.47;;;;;;;;;;6127368;28;20047;-64
2023/06/23 16:04:40;;;;;;;24.10;12.40;;;;;;;;;;6133216;28;20153;-63
2023/06/23 16:07:40;;;;;;;20.63;11.20;;;;;;;;;;6133947;28;20323;-61
2023/06/23 16:10:41;;;;;;;19.55;12.07;;;;;;;;;;6141683;28;20051;-63
2023/06/23 16:13:41;;;;;;;23.40;11.90;;;;;;;;;;6140887;28;20051;-62
2023/06/23 16:16:42;;;;;;;24.55;11.90;;;;;;;;;;6141254;28;20043;-63
2023/06/23 16:19:43;;;;;;;22.27;11.60;;;;;;;;;;6141209;28;20078;-63
2023/06/23 16:22:43;;;;;;;20.73;10.70;;;;;;;;;;6139449;28;20058;-63
2023/06/23 16:25:44;;;;;;;22.50;11.85;;;;;;;;;;6145648;28;20066;-64
2023/06/23 16:28:45;;;;;;;23.73;12.07;;;;;;;;;;6147171;28;20039;-64
2023/06/23 16:31:45;;;;;;;24.63;11.83;;;;;;;;;;6148253;28;20051;-64
2023/06/23 16:34:46;;;;;;;22.40;12.18;;;;;;;;;;6149954;28;20051;-64
2023/06/23 16:37:47;;;;;;;22.70;11.90;;;;;;;;;;6144029;28;20059;-63
2023/06/23 16:40:47;;;;;;;23.73;11.93;;;;;;;;;;6146043;28;20329;-64
2023/06/23 16:43:48;;;;;;;24.65;12.60;;;;;;;;;;6143446;28;20054;-64
2023/06/23 16:46:49;;;;;;;22.25;12.57;;;;;;;;;;6142004;28;20062;-64
2023/06/23 16:49:50;;;;;;;30.70;12.87;;;;;;;;;;6145658;28;20055;-64
2023/06/23 16:52:51;;;;;;;22.63;11.48;;;;;;;;;;6143690;28;20138;-63
2023/06/23 16:55:51;;;;;;;25.33;12.70;;;;;;;;;;6143896;28;20107;-64
2023/06/23 16:58:52;;;;;;;21.98;11.80;;;;;;;;;;6140562;28;20502;-63
2023/06/23 17:01:53;;;;;;;21.10;12.87;;;;;;;;;;6140236;28;20047;-63
2023/06/23 17:04:53;;;;;;;21.20;10.88;;;;;;;;;;6142367;28;20047;-64
2023/06/23 17:07:54;;;;;;;22.23;11.40;;;;;;;;;;6144062;28;20078;-64
2023/06/23 17:10:55;;;;;;;25.75;12.13;;;;;;;;;;6142179;28;20054;-63
2023/06/23 17:13:55;;;;;;;20.07;11.30;;;;;;;;;;6139941;28;20106;-62
2023/06/23 17:16:56;;;;;;;20.52;11.32;;;;;;;;;;6141473;28;20391;-64
2023/06/23 17:19:56;;;;;;;16.17;10.50;;;;;;;;;;6143413;28;20047;-63
2023/06/23 17:22:57;;;;;;;19.45;10.90;;;;;;;;;;6145977;28;20461;-62
2023/06/23 17:25:57;;;;;;;22.90;10.73;;;;;;;;;;6143747;28;20070;-64
2023/06/23 17:28:58;;;;;;;20.10;11.20;;;;;;;;;;6146078;28;20051;-62
2023/06/23 17:31:59;;;;;;;20.90;10.67;;;;;;;;;;6143314;28;20062;-63
2023/06/23 17:34:59;;;;;;;18.55;10.98;;;;;;;;;;6143847;28;20074;-63
2023/06/23 17:38:03;;;;;;;21.77;11.10;;;;;;;;;;6145896;28;20039;-59
2023/06/23 17:41:03;;;;;;;24.15;11.10;;;;;;;;;;6147517;28;20303;-63
2023/06/23 17:44:04;;;;;;;25.03;11.37;;;;;;;;;;6148290;28;20039;-63
2023/06/23 17:47:05;;;;;;;21.27;12.02;;;;;;;;;;6143587;28;20122;-63